Decoded Metar for UBBN (NAKHCHIVAN in AZERBAIJAN) (IATA:N/A) | Meteo·Mobile Aviation Weather
aviador You're here:

UBBN Decoded Metar

NAKHCHIVAN in AZERBAIJAN
Report Time2019-03-21 16:00:00
UTC Time2019-03-21 16:22:50
Flight Rules vfr VFR
Wind130° at 06 kt
W.Decomp.*RWY 14: 5.8 kt HW 1.3 kt LCW
W.Rank130° ranks 2
Current wind is below 130° avg. (7.2)
Visibility9999 m
Phenomena:N/A
Clouds:Few CB 050 Hf
Broken 080 Hf
Expected CloudBase > 3,600 ft AGL from Temp-Dew spread
Ceiling8,000 ft
Temp11°C (ISA +7)
Dew Point02°C (54% RH)
AAT7.2°C
QNH1017 hPa
Density Alt6,473 ft
Elevation5,653 ft
Report Wrong Elevation
Raw Report
UBBN 211600Z 13006KT 9999 FEW050CB BKN080 11/02 Q1017 R14R/CLRD//
NOSIG RMK MT OP QFE687=

Extra information for UBBN:More info

Metar Taf Metar & Taf Last 4 Metars F.Rules Stats Wind Profile Meteogram Temp Stats Airport Information Weather charts Add Link Nearby VenuesMetar ALERT Operation Metar Decoded Social comments